Terminal Aerodrome Forecast
Issued by NWS Sterling, VA

Home | Current Version | Previous Version | Text Only | Print | Product List | Glossary On
Versions: 1 2 3 4 5 6 7 8 9 10 11 12 13 14 15 16 17 18 19 20 21 22 23 24 25
000
FTUS41 KLWX 310800 AAA
TAFDCA
TAF AMD
KDCA 310858Z 3109/0106 00000KT P6SM SCT060
     FM311700 08004KT P6SM BKN050
     FM010400 02004KT P6SM OVC080=

USA.gov is the U.S. government's official web portal to all federal, state and local government web resources and services.